createdAt,value
2024-02-29T00:03:53.456Z,5.53
2024-02-29T00:08:55.185Z,5.40
2024-02-29T00:13:56.846Z,8.35
2024-02-29T00:19:00.071Z,6.28
2024-02-29T00:24:01.784Z,4.78
2024-02-29T00:29:03.415Z,4.35
2024-02-29T00:34:06.604Z,6.13
2024-02-29T00:39:14.354Z,5.78
2024-02-29T00:44:16.956Z,6.22
2024-02-29T00:49:20.108Z,4.70
2024-02-29T00:54:21.769Z,6.28
2024-02-29T00:59:23.358Z,5.28
2024-02-29T01:04:26.371Z,6.60
2024-02-29T01:09:28.149Z,6.40
2024-02-29T01:14:29.764Z,5.65
2024-02-29T01:19:32.809Z,6.03
2024-02-29T01:24:34.472Z,4.95
2024-02-29T01:29:36.136Z,6.65
2024-02-29T01:34:39.126Z,6.28
2024-02-29T01:39:41.034Z,6.13
2024-02-29T01:44:53.212Z,6.40
2024-02-29T01:49:59.616Z,6.22
2024-02-29T01:55:01.497Z,6.57
2024-02-29T02:00:05.972Z,4.70
2024-02-29T02:05:10.701Z,5.78
2024-02-29T02:15:14.701Z,6.93
2024-02-29T02:20:18.694Z,6.38
2024-02-29T02:25:20.524Z,5.55
2024-02-29T02:30:22.186Z,5.47
2024-02-29T02:35:25.248Z,6.97
2024-02-29T02:40:26.917Z,6.53
2024-02-29T02:45:28.535Z,6.60
2024-02-29T02:50:31.557Z,7.07
2024-02-29T02:55:33.211Z,6.72
2024-02-29T03:00:34.951Z,6.07
2024-02-29T03:05:38.055Z,6.22
2024-02-29T03:10:39.844Z,7.10
2024-02-29T03:15:41.586Z,6.00
2024-02-29T03:20:44.698Z,7.00
2024-02-29T03:25:46.609Z,6.28
2024-02-29T03:30:48.304Z,6.03
2024-02-29T03:35:51.410Z,6.57
2024-02-29T03:40:53.268Z,5.57
2024-02-29T03:45:54.990Z,6.53
2024-02-29T03:50:58.019Z,7.85
2024-02-29T03:55:59.735Z,5.68
2024-02-29T04:01:01.657Z,6.55
2024-02-29T04:06:05.251Z,6.82
2024-02-29T04:11:06.950Z,6.22
2024-02-29T04:16:08.607Z,6.35
2024-02-29T04:21:11.696Z,6.80
2024-02-29T04:26:13.401Z,6.43
2024-02-29T04:31:15.180Z,6.65
2024-02-29T04:36:18.445Z,8.43
2024-02-29T04:41:20.135Z,6.10
2024-02-29T04:46:21.885Z,6.43
2024-02-29T04:51:24.893Z,7.97
2024-02-29T04:56:26.617Z,5.03
2024-02-29T05:01:28.339Z,7.65
2024-02-29T05:06:31.452Z,5.70
2024-02-29T05:11:33.686Z,8.13
2024-02-29T05:16:36.198Z,8.88
2024-02-29T05:21:39.393Z,7.60
2024-02-29T05:26:41.009Z,7.40
2024-02-29T05:31:49.876Z,7.72
2024-02-29T05:36:53.146Z,9.27
2024-02-29T05:41:56.213Z,7.30
2024-02-29T05:46:57.909Z,7.85
2024-02-29T05:52:01.006Z,7.60
2024-02-29T05:57:05.973Z,7.70
2024-02-29T06:02:08.124Z,8.20
2024-02-29T06:07:11.326Z,10.13
2024-02-29T06:12:13.018Z,9.00
2024-02-29T06:17:14.687Z,7.57
2024-02-29T06:22:17.943Z,8.25
2024-02-29T06:27:22.564Z,7.78
2024-02-29T06:32:24.171Z,7.00
2024-02-29T06:37:27.424Z,8.27
2024-02-29T06:42:29.127Z,8.93
2024-02-29T06:47:30.837Z,8.18
2024-02-29T06:52:33.843Z,8.43
2024-02-29T06:57:35.641Z,10.38
2024-02-29T07:02:37.260Z,9.32
2024-02-29T07:07:40.212Z,9.38
2024-02-29T07:12:42.408Z,9.20
2024-02-29T07:17:44.187Z,11.02
2024-02-29T07:22:48.716Z,12.02
2024-02-29T07:27:50.513Z,9.45
2024-02-29T07:32:52.254Z,9.70
2024-02-29T07:37:55.362Z,8.57
2024-02-29T07:42:57.103Z,9.10
2024-02-29T07:47:59.054Z,9.30
2024-02-29T07:53:02.141Z,10.55
2024-02-29T07:58:04.027Z,8.77
2024-02-29T08:03:05.955Z,10.20
2024-02-29T08:08:08.937Z,10.25
2024-02-29T08:13:10.636Z,8.88
2024-02-29T08:18:12.347Z,8.20
2024-02-29T08:23:15.412Z,8.18
2024-02-29T08:28:17.183Z,5.97
2024-02-29T08:33:18.918Z,6.22
2024-02-29T08:38:22.108Z,8.43
2024-02-29T08:48:25.329Z,7.28
2024-02-29T08:53:28.358Z,6.40
2024-02-29T08:58:30.052Z,7.43
2024-02-29T09:03:31.661Z,6.65
2024-02-29T09:08:34.728Z,7.10
2024-02-29T09:13:36.538Z,6.43
2024-02-29T09:18:38.277Z,5.72
2024-02-29T09:23:41.295Z,5.90
2024-02-29T09:33:44.541Z,5.65
2024-02-29T09:38:48.055Z,4.78
2024-02-29T09:43:50.657Z,5.05
2024-02-29T09:48:52.425Z,4.57
2024-02-29T09:53:55.891Z,5.60
2024-02-29T09:58:58.962Z,4.20
2024-02-29T10:04:01.351Z,5.65
2024-02-29T10:09:04.443Z,4.25
2024-02-29T10:14:06.172Z,4.43
2024-02-29T10:19:12.260Z,5.03
2024-02-29T10:24:15.444Z,4.22
2024-02-29T10:29:17.675Z,3.85
2024-02-29T10:34:20.639Z,4.40
2024-02-29T10:39:24.012Z,3.78
2024-02-29T10:44:31.486Z,3.65
2024-02-29T10:49:38.629Z,4.18
2024-02-29T10:54:49.745Z,3.90
2024-02-29T10:59:59.196Z,3.80
2024-02-29T11:05:01.460Z,3.85
2024-02-29T11:10:06.061Z,4.53
2024-02-29T11:15:11.497Z,4.28
2024-02-29T11:20:20.418Z,4.32
2024-02-29T11:25:23.902Z,4.28
2024-02-29T11:30:25.834Z,4.05
2024-02-29T11:35:27.881Z,5.18
2024-02-29T11:40:31.904Z,4.78
2024-02-29T11:45:33.841Z,3.58
2024-02-29T11:50:35.489Z,3.35
2024-02-29T11:55:38.656Z,3.22
2024-02-29T12:00:40.390Z,3.78
2024-02-29T12:05:42.067Z,4.00
2024-02-29T12:10:48.979Z,2.90
2024-02-29T12:15:54.546Z,3.45
2024-02-29T12:20:57.458Z,2.83
2024-02-29T12:26:09.228Z,3.38
2024-02-29T12:31:10.977Z,3.58
2024-02-29T12:36:14.215Z,3.45
2024-02-29T12:41:17.348Z,3.22
2024-02-29T12:46:19.181Z,4.13
2024-02-29T12:51:20.908Z,4.07
2024-02-29T12:56:24.104Z,3.28
2024-02-29T13:01:26.063Z,3.88
2024-02-29T13:06:27.926Z,2.25
2024-02-29T13:11:31.039Z,2.38
2024-02-29T13:16:33.170Z,2.65
2024-02-29T13:21:34.931Z,2.78
2024-02-29T13:26:38.418Z,1.98
2024-02-29T13:31:40.164Z,2.05
2024-02-29T13:36:41.856Z,2.42
2024-02-29T13:41:45.015Z,2.30
2024-02-29T13:46:46.722Z,1.50
2024-02-29T13:51:48.449Z,1.83
2024-02-29T13:56:52.515Z,1.67
2024-02-29T14:01:54.308Z,1.60
2024-02-29T14:06:56.152Z,1.77
2024-02-29T14:11:59.148Z,1.30
2024-02-29T14:17:00.796Z,2.03
2024-02-29T14:22:02.691Z,1.88
2024-02-29T14:27:06.125Z,1.73
2024-02-29T14:32:07.743Z,1.50
2024-02-29T14:37:09.555Z,1.70
2024-02-29T14:42:12.571Z,1.65
2024-02-29T14:47:14.330Z,2.17
2024-02-29T14:52:16.018Z,1.67
2024-02-29T14:57:19.125Z,1.75
2024-02-29T15:02:20.783Z,1.65
2024-02-29T15:07:22.549Z,1.90
2024-02-29T15:12:25.765Z,2.25
2024-02-29T15:17:29.883Z,1.83
2024-02-29T15:22:32.868Z,2.08
2024-02-29T15:27:36.013Z,1.60
2024-02-29T15:32:37.717Z,1.52
2024-02-29T15:37:39.605Z,1.73
2024-02-29T15:42:42.904Z,0.98
2024-02-29T15:47:44.756Z,1.67
2024-02-29T15:52:46.443Z,1.95
2024-02-29T15:57:49.480Z,1.50
2024-02-29T16:02:51.317Z,1.38
2024-02-29T16:07:55.797Z,1.40
2024-02-29T16:12:59.373Z,2.05
2024-02-29T16:18:01.476Z,1.83
2024-02-29T16:23:03.434Z,1.90
2024-02-29T16:28:06.877Z,1.95
2024-02-29T16:33:08.647Z,1.65
2024-02-29T16:38:10.388Z,2.55
2024-02-29T16:43:13.426Z,1.70
2024-02-29T16:48:15.291Z,1.73
2024-02-29T16:53:16.940Z,2.08
2024-02-29T16:58:19.999Z,2.95
2024-02-29T17:03:21.696Z,2.33
2024-02-29T17:08:23.307Z,2.58
2024-02-29T17:13:26.349Z,2.47
2024-02-29T17:18:28.048Z,2.45
2024-02-29T17:23:29.715Z,2.17
2024-02-29T17:28:32.793Z,1.52
2024-02-29T17:33:34.462Z,2.67
2024-02-29T17:38:36.118Z,3.17
2024-02-29T17:43:40.081Z,2.33
2024-02-29T17:48:41.833Z,2.50
2024-02-29T17:53:43.530Z,3.13
2024-02-29T17:58:46.697Z,2.50
2024-02-29T18:03:48.335Z,2.58
2024-02-29T18:08:50.019Z,2.72
2024-02-29T18:13:53.058Z,2.38
2024-02-29T18:18:54.754Z,2.80
2024-02-29T18:23:56.434Z,3.13
2024-02-29T18:29:01.174Z,2.70
2024-02-29T18:34:02.789Z,3.30
2024-02-29T18:39:04.722Z,2.38
2024-02-29T18:44:07.767Z,2.97
2024-02-29T18:49:10.272Z,3.28
2024-02-29T18:54:12.348Z,3.22
2024-02-29T18:59:15.422Z,2.88
2024-02-29T19:04:17.310Z,2.78
2024-02-29T19:09:19.242Z,3.50
2024-02-29T19:14:22.262Z,3.20
2024-02-29T19:19:24.051Z,4.50
2024-02-29T19:24:25.733Z,4.90
2024-02-29T19:29:28.704Z,4.50
2024-02-29T19:34:30.394Z,3.28
2024-02-29T19:39:32.080Z,4.63
2024-02-29T19:44:35.226Z,5.03
2024-02-29T19:49:37.451Z,7.80
2024-02-29T19:54:39.363Z,6.70
2024-02-29T19:59:42.357Z,5.60
2024-02-29T20:04:44.129Z,4.63
2024-02-29T20:09:47.869Z,4.47
2024-02-29T20:14:50.972Z,5.93
2024-02-29T20:19:52.696Z,4.95
2024-02-29T20:24:54.364Z,4.57
2024-02-29T20:29:57.503Z,4.82
2024-02-29T20:34:59.453Z,5.70
2024-02-29T20:40:01.190Z,5.75
2024-02-29T20:45:05.248Z,5.07
2024-02-29T20:50:07.167Z,6.30
2024-02-29T20:55:09.217Z,4.72
2024-02-29T21:00:13.615Z,6.07
2024-02-29T21:05:15.439Z,5.18
2024-02-29T21:10:17.896Z,5.65
2024-02-29T21:15:20.912Z,5.97
2024-02-29T21:25:24.955Z,5.22
2024-02-29T21:30:28.291Z,5.43
2024-02-29T21:35:30.148Z,6.05
2024-02-29T21:40:32.712Z,6.72
2024-02-29T21:45:35.778Z,7.72
2024-02-29T21:50:37.428Z,6.43
2024-02-29T21:55:39.095Z,5.53
2024-02-29T22:00:42.218Z,6.70
2024-02-29T22:05:43.901Z,6.53
2024-02-29T22:10:47.269Z,8.75
2024-02-29T22:15:50.421Z,6.80
2024-02-29T22:20:52.373Z,5.93
2024-02-29T22:25:54.118Z,6.65
2024-02-29T22:30:57.332Z,7.25
2024-02-29T22:35:59.875Z,6.72
2024-02-29T22:41:01.561Z,6.13
2024-02-29T22:46:04.916Z,6.65
2024-02-29T22:56:08.165Z,5.85
2024-02-29T23:01:12.875Z,6.80
2024-02-29T23:06:14.549Z,6.32
2024-02-29T23:11:16.226Z,8.00
2024-02-29T23:16:19.478Z,7.88
2024-02-29T23:21:21.204Z,8.77
2024-02-29T23:26:22.890Z,7.78
2024-02-29T23:31:25.977Z,6.38
2024-02-29T23:36:27.628Z,6.90
2024-02-29T23:41:29.299Z,7.60
2024-02-29T23:46:32.379Z,6.78
2024-02-29T23:51:34.856Z,8.35
2024-02-29T23:56:36.477Z,7.30
